sensor_id;sensor_type;location;lat;lon;timestamp;P1;durP1;ratioP1;P2;durP2;ratioP2
4555;SDS011;2290;48.674;9.018;2023-07-02T00:10:43;3.30;;;2.53;;
4555;SDS011;2290;48.674;9.018;2023-07-02T00:13:48;3.00;;;2.60;;
4555;SDS011;2290;48.674;9.018;2023-07-02T00:24:09;3.13;;;2.33;;
4555;SDS011;2290;48.674;9.018;2023-07-02T00:30:38;3.80;;;2.80;;
4555;SDS011;2290;48.674;9.018;2023-07-02T00:41:09;2.87;;;2.30;;
4555;SDS011;2290;48.674;9.018;2023-07-02T00:54:56;4.13;;;2.60;;
4555;SDS011;2290;48.674;9.018;2023-07-02T01:07:48;3.00;;;2.53;;
4555;SDS011;2290;48.674;9.018;2023-07-02T01:25:20;3.00;;;2.57;;
4555;SDS011;2290;48.674;9.018;2023-07-02T01:42:19;3.37;;;2.37;;
4555;SDS011;2290;48.674;9.018;2023-07-02T01:45:04;3.10;;;2.80;;
4555;SDS011;2290;48.674;9.018;2023-07-02T01:48:39;5.20;;;2.77;;
4555;SDS011;2290;48.674;9.018;2023-07-02T02:04:53;3.90;;;2.30;;
4555;SDS011;2290;48.674;9.018;2023-07-02T02:19:10;2.60;;;2.40;;
4555;SDS011;2290;48.674;9.018;2023-07-02T02:22:51;2.83;;;2.20;;
4555;SDS011;2290;48.674;9.018;2023-07-02T02:30:19;3.63;;;2.83;;
4555;SDS011;2290;48.674;9.018;2023-07-02T03:18:42;6.73;;;2.80;;
4555;SDS011;2290;48.674;9.018;2023-07-02T03:28:39;4.13;;;2.90;;
4555;SDS011;2290;48.674;9.018;2023-07-02T03:31:14;3.30;;;3.00;;
4555;SDS011;2290;48.674;9.018;2023-07-02T03:33:40;4.07;;;2.80;;
4555;SDS011;2290;48.674;9.018;2023-07-02T03:36:06;5.03;;;2.80;;
4555;SDS011;2290;48.674;9.018;2023-07-02T03:38:32;6.10;;;2.50;;
4555;SDS011;2290;48.674;9.018;2023-07-02T03:40:57;3.10;;;2.53;;
4555;SDS011;2290;48.674;9.018;2023-07-02T03:43:23;5.20;;;2.93;;
4555;SDS011;2290;48.674;9.018;2023-07-02T03:45:51;5.73;;;2.80;;
4555;SDS011;2290;48.674;9.018;2023-07-02T03:48:18;5.67;;;3.00;;
4555;SDS011;2290;48.674;9.018;2023-07-02T03:50:43;7.43;;;3.47;;
4555;SDS011;2290;48.674;9.018;2023-07-02T03:53:09;4.23;;;2.63;;
4555;SDS011;2290;48.674;9.018;2023-07-02T03:55:35;3.50;;;2.53;;
4555;SDS011;2290;48.674;9.018;2023-07-02T03:58:01;5.33;;;3.13;;
4555;SDS011;2290;48.674;9.018;2023-07-02T04:00:26;4.00;;;2.77;;
4555;SDS011;2290;48.674;9.018;2023-07-02T04:02:52;3.13;;;2.27;;
4555;SDS011;2290;48.674;9.018;2023-07-02T04:05:17;6.93;;;2.50;;
4555;SDS011;2290;48.674;9.018;2023-07-02T04:07:43;3.43;;;2.53;;
4555;SDS011;2290;48.674;9.018;2023-07-02T04:10:09;2.87;;;2.60;;
4555;SDS011;2290;48.674;9.018;2023-07-02T04:12:34;3.90;;;3.00;;
4555;SDS011;2290;48.674;9.018;2023-07-02T04:15:00;3.80;;;2.87;;
4555;SDS011;2290;48.674;9.018;2023-07-02T04:17:28;3.00;;;2.50;;
4555;SDS011;2290;48.674;9.018;2023-07-02T04:19:54;3.87;;;2.53;;
4555;SDS011;2290;48.674;9.018;2023-07-02T04:22:20;2.87;;;2.57;;
4555;SDS011;2290;48.674;9.018;2023-07-02T04:24:45;5.13;;;3.00;;
4555;SDS011;2290;48.674;9.018;2023-07-02T04:27:13;3.17;;;2.43;;
4555;SDS011;2290;48.674;9.018;2023-07-02T04:29:42;4.70;;;2.90;;
4555;SDS011;2290;48.674;9.018;2023-07-02T04:32:08;4.20;;;2.77;;
4555;SDS011;2290;48.674;9.018;2023-07-02T04:34:35;2.67;;;2.40;;
4555;SDS011;2290;48.674;9.018;2023-07-02T04:37:02;4.63;;;2.80;;
4555;SDS011;2290;48.674;9.018;2023-07-02T04:39:32;4.33;;;2.73;;
4555;SDS011;2290;48.674;9.018;2023-07-02T04:42:02;2.77;;;2.47;;
4555;SDS011;2290;48.674;9.018;2023-07-02T04:44:30;3.20;;;2.20;;
4555;SDS011;2290;48.674;9.018;2023-07-02T04:47:02;3.40;;;2.70;;
4555;SDS011;2290;48.674;9.018;2023-07-02T04:49:28;2.83;;;2.47;;
4555;SDS011;2290;48.674;9.018;2023-07-02T04:51:55;5.50;;;2.33;;
4555;SDS011;2290;48.674;9.018;2023-07-02T04:54:22;3.50;;;2.40;;
4555;SDS011;2290;48.674;9.018;2023-07-02T04:56:48;3.63;;;2.70;;
4555;SDS011;2290;48.674;9.018;2023-07-02T04:59:20;2.93;;;2.23;;
4555;SDS011;2290;48.674;9.018;2023-07-02T05:01:47;3.87;;;2.63;;
4555;SDS011;2290;48.674;9.018;2023-07-02T05:04:13;2.73;;;2.50;;
4555;SDS011;2290;48.674;9.018;2023-07-02T05:06:39;4.07;;;2.70;;
4555;SDS011;2290;48.674;9.018;2023-07-02T05:09:05;3.70;;;2.30;;
4555;SDS011;2290;48.674;9.018;2023-07-02T05:11:30;2.87;;;2.67;;
4555;SDS011;2290;48.674;9.018;2023-07-02T05:13:56;6.10;;;2.40;;
4555;SDS011;2290;48.674;9.018;2023-07-02T05:16:21;5.10;;;2.93;;
4555;SDS011;2290;48.674;9.018;2023-07-02T05:18:47;3.33;;;2.67;;
4555;SDS011;2290;48.674;9.018;2023-07-02T05:21:17;4.97;;;2.80;;
4555;SDS011;2290;48.674;9.018;2023-07-02T05:23:43;3.83;;;3.00;;
4555;SDS011;2290;48.674;9.018;2023-07-02T05:26:08;5.33;;;2.97;;
4555;SDS011;2290;48.674;9.018;2023-07-02T05:28:34;4.13;;;3.00;;
4555;SDS011;2290;48.674;9.018;2023-07-02T05:30:59;5.03;;;2.93;;
4555;SDS011;2290;48.674;9.018;2023-07-02T05:33:25;4.93;;;3.10;;
4555;SDS011;2290;48.674;9.018;2023-07-02T05:35:51;7.73;;;3.67;;
4555;SDS011;2290;48.674;9.018;2023-07-02T05:38:17;5.60;;;3.30;;
4555;SDS011;2290;48.674;9.018;2023-07-02T05:40:43;5.73;;;3.40;;
4555;SDS011;2290;48.674;9.018;2023-07-02T05:43:11;5.87;;;3.73;;
4555;SDS011;2290;48.674;9.018;2023-07-02T05:45:36;6.93;;;3.80;;
4555;SDS011;2290;48.674;9.018;2023-07-02T05:48:02;5.73;;;3.70;;
4555;SDS011;2290;48.674;9.018;2023-07-02T05:50:28;9.07;;;4.33;;
4555;SDS011;2290;48.674;9.018;2023-07-02T05:52:55;6.20;;;3.50;;
4555;SDS011;2290;48.674;9.018;2023-07-02T05:55:20;6.97;;;3.70;;
4555;SDS011;2290;48.674;9.018;2023-07-02T05:57:46;5.67;;;3.20;;
4555;SDS011;2290;48.674;9.018;2023-07-02T06:00:12;7.43;;;3.70;;
4555;SDS011;2290;48.674;9.018;2023-07-02T06:02:38;11.00;;;3.50;;
4555;SDS011;2290;48.674;9.018;2023-07-02T06:05:04;6.37;;;3.50;;
4555;SDS011;2290;48.674;9.018;2023-07-02T06:07:30;7.13;;;3.70;;
4555;SDS011;2290;48.674;9.018;2023-07-02T06:09:55;5.77;;;3.40;;
4555;SDS011;2290;48.674;9.018;2023-07-02T06:12:21;5.93;;;3.70;;
4555;SDS011;2290;48.674;9.018;2023-07-02T06:14:47;5.80;;;3.70;;
4555;SDS011;2290;48.674;9.018;2023-07-02T06:17:13;10.50;;;3.90;;
4555;SDS011;2290;48.674;9.018;2023-07-02T06:19:40;8.93;;;4.20;;
4555;SDS011;2290;48.674;9.018;2023-07-02T06:22:06;8.20;;;4.53;;
4555;SDS011;2290;48.674;9.018;2023-07-02T06:24:31;11.47;;;4.23;;
4555;SDS011;2290;48.674;9.018;2023-07-02T06:26:57;7.90;;;4.50;;
4555;SDS011;2290;48.674;9.018;2023-07-02T06:29:23;11.37;;;4.70;;
4555;SDS011;2290;48.674;9.018;2023-07-02T06:31:49;9.23;;;5.50;;
4555;SDS011;2290;48.674;9.018;2023-07-02T06:34:16;8.03;;;4.73;;
4555;SDS011;2290;48.674;9.018;2023-07-02T06:36:43;10.80;;;5.80;;
4555;SDS011;2290;48.674;9.018;2023-07-02T06:39:08;9.03;;;5.43;;
4555;SDS011;2290;48.674;9.018;2023-07-02T06:41:37;10.57;;;4.90;;
4555;SDS011;2290;48.674;9.018;2023-07-02T06:44:02;12.80;;;5.10;;
4555;SDS011;2290;48.674;9.018;2023-07-02T06:46:28;11.27;;;5.90;;
4555;SDS011;2290;48.674;9.018;2023-07-02T06:48:54;12.10;;;6.00;;
4555;SDS011;2290;48.674;9.018;2023-07-02T06:51:21;11.43;;;6.43;;
4555;SDS011;2290;48.674;9.018;2023-07-02T06:53:46;11.47;;;5.67;;
4555;SDS011;2290;48.674;9.018;2023-07-02T06:56:12;15.00;;;6.73;;
4555;SDS011;2290;48.674;9.018;2023-07-02T06:58:44;16.30;;;5.87;;
4555;SDS011;2290;48.674;9.018;2023-07-02T07:01:10;14.07;;;6.40;;
4555;SDS011;2290;48.674;9.018;2023-07-02T07:03:36;11.33;;;5.77;;
4555;SDS011;2290;48.674;9.018;2023-07-02T07:06:02;13.10;;;5.90;;
4555;SDS011;2290;48.674;9.018;2023-07-02T07:08:27;11.47;;;6.00;;
4555;SDS011;2290;48.674;9.018;2023-07-02T07:10:53;12.87;;;6.60;;
4555;SDS011;2290;48.674;9.018;2023-07-02T07:13:19;9.60;;;6.20;;
4555;SDS011;2290;48.674;9.018;2023-07-02T07:15:44;12.67;;;6.60;;
4555;SDS011;2290;48.674;9.018;2023-07-02T07:18:10;18.13;;;7.50;;
4555;SDS011;2290;48.674;9.018;2023-07-02T07:20:36;16.20;;;7.10;;
4555;SDS011;2290;48.674;9.018;2023-07-02T07:23:03;14.00;;;7.00;;
4555;SDS011;2290;48.674;9.018;2023-07-02T07:25:29;17.43;;;9.43;;
4555;SDS011;2290;48.674;9.018;2023-07-02T07:27:54;15.10;;;7.97;;
4555;SDS011;2290;48.674;9.018;2023-07-02T07:30:20;16.50;;;8.77;;
4555;SDS011;2290;48.674;9.018;2023-07-02T07:32:50;13.50;;;6.97;;
4555;SDS011;2290;48.674;9.018;2023-07-02T07:35:17;13.87;;;7.50;;
4555;SDS011;2290;48.674;9.018;2023-07-02T07:37:43;13.67;;;7.43;;
4555;SDS011;2290;48.674;9.018;2023-07-02T07:40:09;16.97;;;7.60;;
4555;SDS011;2290;48.674;9.018;2023-07-02T07:42:35;13.57;;;7.13;;
4555;SDS011;2290;48.674;9.018;2023-07-02T07:45:02;13.87;;;7.20;;
4555;SDS011;2290;48.674;9.018;2023-07-02T07:47:28;16.67;;;7.73;;
4555;SDS011;2290;48.674;9.018;2023-07-02T07:49:53;18.37;;;7.10;;
4555;SDS011;2290;48.674;9.018;2023-07-02T07:52:19;11.70;;;7.10;;
4555;SDS011;2290;48.674;9.018;2023-07-02T07:54:46;16.67;;;8.13;;
4555;SDS011;2290;48.674;9.018;2023-07-02T07:57:11;18.20;;;7.53;;
4555;SDS011;2290;48.674;9.018;2023-07-02T07:59:37;14.03;;;7.03;;
4555;SDS011;2290;48.674;9.018;2023-07-02T08:02:03;15.80;;;7.70;;
4555;SDS011;2290;48.674;9.018;2023-07-02T08:04:29;17.17;;;7.70;;
4555;SDS011;2290;48.674;9.018;2023-07-02T08:06:56;15.50;;;8.00;;
4555;SDS011;2290;48.674;9.018;2023-07-02T08:09:23;16.07;;;7.70;;
4555;SDS011;2290;48.674;9.018;2023-07-02T08:11:49;19.43;;;7.90;;
4555;SDS011;2290;48.674;9.018;2023-07-02T08:14:16;17.00;;;8.00;;
4555;SDS011;2290;48.674;9.018;2023-07-02T08:16:43;15.73;;;7.67;;
4555;SDS011;2290;48.674;9.018;2023-07-02T08:19:09;16.27;;;7.30;;
4555;SDS011;2290;48.674;9.018;2023-07-02T08:21:35;13.50;;;7.23;;
4555;SDS011;2290;48.674;9.018;2023-07-02T08:24:02;16.40;;;7.80;;
4555;SDS011;2290;48.674;9.018;2023-07-02T08:26:28;15.17;;;8.30;;
4555;SDS011;2290;48.674;9.018;2023-07-02T08:28:54;16.37;;;8.17;;
4555;SDS011;2290;48.674;9.018;2023-07-02T08:31:20;17.43;;;8.10;;
4555;SDS011;2290;48.674;9.018;2023-07-02T08:33:45;15.00;;;7.67;;
4555;SDS011;2290;48.674;9.018;2023-07-02T08:36:11;16.70;;;7.33;;
4555;SDS011;2290;48.674;9.018;2023-07-02T08:38:38;15.30;;;8.07;;
4555;SDS011;2290;48.674;9.018;2023-07-02T08:41:08;16.70;;;7.40;;
4555;SDS011;2290;48.674;9.018;2023-07-02T08:43:34;15.13;;;8.27;;
4555;SDS011;2290;48.674;9.018;2023-07-02T08:46:01;13.13;;;7.60;;
4555;SDS011;2290;48.674;9.018;2023-07-02T08:48:27;12.53;;;7.23;;
4555;SDS011;2290;48.674;9.018;2023-07-02T08:50:54;14.30;;;7.33;;
4555;SDS011;2290;48.674;9.018;2023-07-02T08:53:20;16.07;;;8.40;;
4555;SDS011;2290;48.674;9.018;2023-07-02T08:55:50;11.97;;;7.70;;
4555;SDS011;2290;48.674;9.018;2023-07-02T08:58:16;16.13;;;7.93;;
4555;SDS011;2290;48.674;9.018;2023-07-02T09:01:03;16.20;;;9.43;;
4555;SDS011;2290;48.674;9.018;2023-07-02T09:03:34;14.80;;;7.53;;
4555;SDS011;2290;48.674;9.018;2023-07-02T09:06:02;14.03;;;7.20;;
4555;SDS011;2290;48.674;9.018;2023-07-02T09:08:31;12.93;;;7.30;;
4555;SDS011;2290;48.674;9.018;2023-07-02T09:11:13;20.20;;;6.93;;
4555;SDS011;2290;48.674;9.018;2023-07-02T09:16:27;15.30;;;7.33;;
4555;SDS011;2290;48.674;9.018;2023-07-02T09:21:46;17.30;;;7.43;;
4555;SDS011;2290;48.674;9.018;2023-07-02T09:24:20;11.13;;;6.43;;
4555;SDS011;2290;48.674;9.018;2023-07-02T09:26:49;15.60;;;7.07;;
4555;SDS011;2290;48.674;9.018;2023-07-02T09:29:27;11.83;;;6.70;;
4555;SDS011;2290;48.674;9.018;2023-07-02T09:31:58;16.80;;;8.50;;
4555;SDS011;2290;48.674;9.018;2023-07-02T09:34:31;17.93;;;8.27;;
4555;SDS011;2290;48.674;9.018;2023-07-02T09:36:58;14.10;;;8.27;;
4555;SDS011;2290;48.674;9.018;2023-07-02T09:39:25;14.90;;;8.03;;
4555;SDS011;2290;48.674;9.018;2023-07-02T09:41:56;15.40;;;8.33;;
4555;SDS011;2290;48.674;9.018;2023-07-02T09:44:26;15.57;;;8.57;;
4555;SDS011;2290;48.674;9.018;2023-07-02T09:47:07;17.70;;;8.77;;
4555;SDS011;2290;48.674;9.018;2023-07-02T09:49:34;18.97;;;9.47;;
4555;SDS011;2290;48.674;9.018;2023-07-02T09:54:31;21.13;;;10.27;;
4555;SDS011;2290;48.674;9.018;2023-07-02T09:56:58;17.33;;;8.57;;
4555;SDS011;2290;48.674;9.018;2023-07-02T09:59:24;18.73;;;8.80;;
4555;SDS011;2290;48.674;9.018;2023-07-02T10:01:50;17.87;;;8.60;;
4555;SDS011;2290;48.674;9.018;2023-07-02T10:04:18;17.23;;;8.50;;
4555;SDS011;2290;48.674;9.018;2023-07-02T10:06:48;14.60;;;7.93;;
4555;SDS011;2290;48.674;9.018;2023-07-02T10:09:16;12.77;;;7.30;;
4555;SDS011;2290;48.674;9.018;2023-07-02T10:11:42;12.87;;;7.93;;
4555;SDS011;2290;48.674;9.018;2023-07-02T10:14:08;19.07;;;9.60;;
4555;SDS011;2290;48.674;9.018;2023-07-02T10:16:33;18.20;;;8.70;;
4555;SDS011;2290;48.674;9.018;2023-07-02T10:19:11;21.47;;;9.47;;
4555;SDS011;2290;48.674;9.018;2023-07-02T10:21:37;16.90;;;8.03;;
4555;SDS011;2290;48.674;9.018;2023-07-02T10:24:10;16.90;;;8.40;;
4555;SDS011;2290;48.674;9.018;2023-07-02T10:26:37;17.00;;;9.43;;
4555;SDS011;2290;48.674;9.018;2023-07-02T10:29:03;17.50;;;8.70;;
4555;SDS011;2290;48.674;9.018;2023-07-02T10:31:28;17.80;;;8.97;;
4555;SDS011;2290;48.674;9.018;2023-07-02T10:33:55;18.67;;;8.60;;
4555;SDS011;2290;48.674;9.018;2023-07-02T10:36:21;15.90;;;8.70;;
4555;SDS011;2290;48.674;9.018;2023-07-02T10:38:49;15.00;;;7.97;;
4555;SDS011;2290;48.674;9.018;2023-07-02T10:41:25;15.20;;;9.10;;
4555;SDS011;2290;48.674;9.018;2023-07-02T10:43:52;18.23;;;9.60;;
4555;SDS011;2290;48.674;9.018;2023-07-02T10:46:19;16.10;;;7.90;;
4555;SDS011;2290;48.674;9.018;2023-07-02T10:48:53;14.10;;;7.70;;
4555;SDS011;2290;48.674;9.018;2023-07-02T10:51:22;14.23;;;7.63;;
4555;SDS011;2290;48.674;9.018;2023-07-02T10:53:58;14.97;;;10.20;;
4555;SDS011;2290;48.674;9.018;2023-07-02T10:56:25;14.37;;;7.90;;
4555;SDS011;2290;48.674;9.018;2023-07-02T10:58:52;15.23;;;8.10;;
4555;SDS011;2290;48.674;9.018;2023-07-02T11:01:25;16.10;;;9.00;;
4555;SDS011;2290;48.674;9.018;2023-07-02T11:04:02;18.70;;;8.37;;
4555;SDS011;2290;48.674;9.018;2023-07-02T11:06:30;17.50;;;7.90;;
4555;SDS011;2290;48.674;9.018;2023-07-02T11:09:00;15.03;;;8.37;;
4555;SDS011;2290;48.674;9.018;2023-07-02T11:11:27;20.60;;;8.70;;
4555;SDS011;2290;48.674;9.018;2023-07-02T11:13:53;15.00;;;8.60;;
4555;SDS011;2290;48.674;9.018;2023-07-02T11:16:26;13.93;;;7.80;;
4555;SDS011;2290;48.674;9.018;2023-07-02T11:19:15;16.90;;;8.33;;
4555;SDS011;2290;48.674;9.018;2023-07-02T11:21:49;18.00;;;8.20;;
4555;SDS011;2290;48.674;9.018;2023-07-02T11:26:53;14.50;;;7.90;;
4555;SDS011;2290;48.674;9.018;2023-07-02T11:29:18;15.40;;;7.73;;
4555;SDS011;2290;48.674;9.018;2023-07-02T11:31:44;12.60;;;7.77;;
4555;SDS011;2290;48.674;9.018;2023-07-02T11:34:16;14.10;;;7.90;;
4555;SDS011;2290;48.674;9.018;2023-07-02T11:36:43;13.20;;;6.90;;
4555;SDS011;2290;48.674;9.018;2023-07-02T11:39:09;14.80;;;8.60;;
4555;SDS011;2290;48.674;9.018;2023-07-02T11:41:38;22.03;;;7.33;;
4555;SDS011;2290;48.674;9.018;2023-07-02T11:44:05;15.07;;;7.73;;
4555;SDS011;2290;48.674;9.018;2023-07-02T11:46:31;16.93;;;7.60;;
4555;SDS011;2290;48.674;9.018;2023-07-02T11:48:57;18.30;;;9.20;;
4555;SDS011;2290;48.674;9.018;2023-07-02T11:51:22;14.63;;;8.10;;
4555;SDS011;2290;48.674;9.018;2023-07-02T11:53:49;15.40;;;7.70;;
4555;SDS011;2290;48.674;9.018;2023-07-02T11:56:15;17.17;;;8.53;;
4555;SDS011;2290;48.674;9.018;2023-07-02T11:58:41;14.40;;;7.67;;
4555;SDS011;2290;48.674;9.018;2023-07-02T12:01:07;16.60;;;9.20;;
4555;SDS011;2290;48.674;9.018;2023-07-02T12:03:33;14.20;;;8.80;;
4555;SDS011;2290;48.674;9.018;2023-07-02T12:05:58;16.70;;;7.60;;
4555;SDS011;2290;48.674;9.018;2023-07-02T12:08:24;16.70;;;8.63;;
4555;SDS011;2290;48.674;9.018;2023-07-02T12:10:50;19.37;;;7.83;;
4555;SDS011;2290;48.674;9.018;2023-07-02T12:13:15;15.30;;;7.80;;
4555;SDS011;2290;48.674;9.018;2023-07-02T12:15:41;14.33;;;8.20;;
4555;SDS011;2290;48.674;9.018;2023-07-02T12:18:07;17.40;;;8.20;;
4555;SDS011;2290;48.674;9.018;2023-07-02T12:20:34;14.60;;;7.93;;
4555;SDS011;2290;48.674;9.018;2023-07-02T12:22:59;14.80;;;7.90;;
4555;SDS011;2290;48.674;9.018;2023-07-02T12:25:25;11.80;;;7.30;;
4555;SDS011;2290;48.674;9.018;2023-07-02T12:27:50;12.47;;;7.50;;
4555;SDS011;2290;48.674;9.018;2023-07-02T12:30:18;16.83;;;8.47;;
4555;SDS011;2290;48.674;9.018;2023-07-02T12:32:44;16.47;;;7.87;;
4555;SDS011;2290;48.674;9.018;2023-07-02T12:35:10;13.27;;;7.90;;
4555;SDS011;2290;48.674;9.018;2023-07-02T12:37:46;17.60;;;8.53;;
4555;SDS011;2290;48.674;9.018;2023-07-02T12:40:13;13.37;;;7.47;;
4555;SDS011;2290;48.674;9.018;2023-07-02T12:42:41;14.30;;;8.20;;
4555;SDS011;2290;48.674;9.018;2023-07-02T12:45:08;11.10;;;7.03;;
4555;SDS011;2290;48.674;9.018;2023-07-02T12:47:34;12.47;;;6.73;;
4555;SDS011;2290;48.674;9.018;2023-07-02T12:50:00;12.17;;;6.83;;
4555;SDS011;2290;48.674;9.018;2023-07-02T12:52:26;14.23;;;7.00;;
4555;SDS011;2290;48.674;9.018;2023-07-02T12:54:53;13.27;;;6.93;;
4555;SDS011;2290;48.674;9.018;2023-07-02T12:57:18;13.83;;;7.77;;
4555;SDS011;2290;48.674;9.018;2023-07-02T12:59:44;21.70;;;8.33;;
4555;SDS011;2290;48.674;9.018;2023-07-02T13:02:09;13.30;;;8.43;;
4555;SDS011;2290;48.674;9.018;2023-07-02T13:04:38;14.77;;;7.80;;
4555;SDS011;2290;48.674;9.018;2023-07-02T13:07:05;14.17;;;8.20;;
4555;SDS011;2290;48.674;9.018;2023-07-02T13:09:31;11.33;;;7.00;;
4555;SDS011;2290;48.674;9.018;2023-07-02T13:11:56;15.90;;;7.20;;
4555;SDS011;2290;48.674;9.018;2023-07-02T13:14:22;12.40;;;7.10;;
4555;SDS011;2290;48.674;9.018;2023-07-02T13:16:47;12.50;;;7.43;;
4555;SDS011;2290;48.674;9.018;2023-07-02T13:19:13;14.90;;;7.97;;
4555;SDS011;2290;48.674;9.018;2023-07-02T13:21:40;15.90;;;9.40;;
4555;SDS011;2290;48.674;9.018;2023-07-02T13:24:05;13.83;;;7.83;;
4555;SDS011;2290;48.674;9.018;2023-07-02T13:26:31;16.77;;;8.10;;
4555;SDS011;2290;48.674;9.018;2023-07-02T13:28:57;12.47;;;7.47;;
4555;SDS011;2290;48.674;9.018;2023-07-02T13:31:22;13.50;;;8.67;;
4555;SDS011;2290;48.674;9.018;2023-07-02T13:33:48;13.83;;;7.33;;
4555;SDS011;2290;48.674;9.018;2023-07-02T13:36:15;11.53;;;7.20;;
4555;SDS011;2290;48.674;9.018;2023-07-02T13:38:41;12.27;;;7.70;;
4555;SDS011;2290;48.674;9.018;2023-07-02T13:41:06;17.50;;;8.83;;
4555;SDS011;2290;48.674;9.018;2023-07-02T13:43:32;14.10;;;7.77;;
4555;SDS011;2290;48.674;9.018;2023-07-02T13:45:57;11.73;;;7.30;;
4555;SDS011;2290;48.674;9.018;2023-07-02T13:48:23;13.20;;;7.87;;
4555;SDS011;2290;48.674;9.018;2023-07-02T13:50:48;12.47;;;8.00;;
4555;SDS011;2290;48.674;9.018;2023-07-02T13:53:14;12.37;;;8.43;;
4555;SDS011;2290;48.674;9.018;2023-07-02T13:55:40;15.67;;;8.70;;
4555;SDS011;2290;48.674;9.018;2023-07-02T13:58:05;14.77;;;7.97;;
4555;SDS011;2290;48.674;9.018;2023-07-02T14:00:31;15.30;;;8.73;;
4555;SDS011;2290;48.674;9.018;2023-07-02T14:02:56;16.00;;;8.37;;
4555;SDS011;2290;48.674;9.018;2023-07-02T14:05:22;14.80;;;8.70;;
4555;SDS011;2290;48.674;9.018;2023-07-02T14:07:48;14.17;;;8.77;;
4555;SDS011;2290;48.674;9.018;2023-07-02T14:10:14;13.80;;;8.30;;
4555;SDS011;2290;48.674;9.018;2023-07-02T14:12:40;15.73;;;9.00;;
4555;SDS011;2290;48.674;9.018;2023-07-02T14:15:06;15.67;;;8.17;;
4555;SDS011;2290;48.674;9.018;2023-07-02T14:17:33;17.50;;;9.07;;
4555;SDS011;2290;48.674;9.018;2023-07-02T14:19:58;16.07;;;8.90;;
4555;SDS011;2290;48.674;9.018;2023-07-02T14:22:24;15.03;;;8.70;;
4555;SDS011;2290;48.674;9.018;2023-07-02T14:24:49;15.30;;;9.10;;
4555;SDS011;2290;48.674;9.018;2023-07-02T14:27:15;18.97;;;9.53;;
4555;SDS011;2290;48.674;9.018;2023-07-02T14:29:41;14.13;;;8.50;;
4555;SDS011;2290;48.674;9.018;2023-07-02T14:32:06;18.23;;;9.60;;
4555;SDS011;2290;48.674;9.018;2023-07-02T14:34:32;14.90;;;8.90;;
4555;SDS011;2290;48.674;9.018;2023-07-02T14:36:58;14.90;;;8.83;;
4555;SDS011;2290;48.674;9.018;2023-07-02T14:39:24;18.00;;;9.30;;
4555;SDS011;2290;48.674;9.018;2023-07-02T14:41:49;12.53;;;7.93;;
4555;SDS011;2290;48.674;9.018;2023-07-02T14:44:15;14.67;;;8.20;;
4555;SDS011;2290;48.674;9.018;2023-07-02T14:46:42;14.47;;;8.50;;
4555;SDS011;2290;48.674;9.018;2023-07-02T14:49:08;14.57;;;8.87;;
4555;SDS011;2290;48.674;9.018;2023-07-02T14:51:34;16.10;;;8.70;;
4555;SDS011;2290;48.674;9.018;2023-07-02T14:54:00;15.10;;;9.30;;
4555;SDS011;2290;48.674;9.018;2023-07-02T14:56:28;17.07;;;9.53;;
4555;SDS011;2290;48.674;9.018;2023-07-02T14:58:54;14.83;;;8.73;;
4555;SDS011;2290;48.674;9.018;2023-07-02T15:01:20;15.00;;;8.80;;
4555;SDS011;2290;48.674;9.018;2023-07-02T15:03:46;15.40;;;8.50;;
4555;SDS011;2290;48.674;9.018;2023-07-02T15:06:12;16.40;;;8.60;;
4555;SDS011;2290;48.674;9.018;2023-07-02T15:08:41;13.50;;;8.07;;
4555;SDS011;2290;48.674;9.018;2023-07-02T15:11:08;14.30;;;8.27;;
4555;SDS011;2290;48.674;9.018;2023-07-02T15:13:36;16.83;;;9.07;;
4555;SDS011;2290;48.674;9.018;2023-07-02T15:16:02;15.57;;;8.70;;
4555;SDS011;2290;48.674;9.018;2023-07-02T15:18:29;13.90;;;9.07;;
4555;SDS011;2290;48.674;9.018;2023-07-02T15:20:54;16.43;;;8.87;;
4555;SDS011;2290;48.674;9.018;2023-07-02T15:23:21;14.53;;;8.10;;
4555;SDS011;2290;48.674;9.018;2023-07-02T15:25:55;14.87;;;8.50;;
4555;SDS011;2290;48.674;9.018;2023-07-02T15:28:23;16.47;;;9.00;;
4555;SDS011;2290;48.674;9.018;2023-07-02T15:30:54;14.40;;;8.23;;
4555;SDS011;2290;48.674;9.018;2023-07-02T15:33:22;13.30;;;8.80;;
4555;SDS011;2290;48.674;9.018;2023-07-02T15:35:48;16.97;;;9.00;;
4555;SDS011;2290;48.674;9.018;2023-07-02T15:38:14;13.67;;;8.50;;
4555;SDS011;2290;48.674;9.018;2023-07-02T15:40:40;14.03;;;8.37;;
4555;SDS011;2290;48.674;9.018;2023-07-02T15:43:05;14.90;;;8.20;;
4555;SDS011;2290;48.674;9.018;2023-07-02T15:45:31;19.30;;;8.40;;
4555;SDS011;2290;48.674;9.018;2023-07-02T15:47:57;14.90;;;8.43;;
4555;SDS011;2290;48.674;9.018;2023-07-02T15:50:23;16.67;;;7.93;;
4555;SDS011;2290;48.674;9.018;2023-07-02T15:52:49;14.33;;;8.17;;
4555;SDS011;2290;48.674;9.018;2023-07-02T15:55:16;16.83;;;8.70;;
4555;SDS011;2290;48.674;9.018;2023-07-02T15:57:42;17.67;;;8.57;;
4555;SDS011;2290;48.674;9.018;2023-07-02T16:00:09;17.73;;;9.10;;
4555;SDS011;2290;48.674;9.018;2023-07-02T16:02:35;14.30;;;8.23;;
4555;SDS011;2290;48.674;9.018;2023-07-02T16:05:00;12.50;;;7.40;;
4555;SDS011;2290;48.674;9.018;2023-07-02T16:07:26;13.00;;;7.23;;
4555;SDS011;2290;48.674;9.018;2023-07-02T16:09:53;11.77;;;7.50;;
4555;SDS011;2290;48.674;9.018;2023-07-02T16:12:19;13.50;;;7.90;;
4555;SDS011;2290;48.674;9.018;2023-07-02T16:14:44;13.23;;;7.57;;
4555;SDS011;2290;48.674;9.018;2023-07-02T16:17:10;14.60;;;8.20;;
4555;SDS011;2290;48.674;9.018;2023-07-02T16:19:36;14.00;;;8.40;;
4555;SDS011;2290;48.674;9.018;2023-07-02T16:22:01;13.27;;;7.77;;
4555;SDS011;2290;48.674;9.018;2023-07-02T16:24:31;17.43;;;7.60;;
4555;SDS011;2290;48.674;9.018;2023-07-02T16:26:58;14.23;;;8.10;;
4555;SDS011;2290;48.674;9.018;2023-07-02T16:29:25;14.63;;;8.13;;
4555;SDS011;2290;48.674;9.018;2023-07-02T16:31:55;13.83;;;7.97;;
4555;SDS011;2290;48.674;9.018;2023-07-02T16:34:23;13.27;;;7.53;;
4555;SDS011;2290;48.674;9.018;2023-07-02T16:36:50;11.93;;;7.60;;
4555;SDS011;2290;48.674;9.018;2023-07-02T16:39:16;12.00;;;7.70;;
4555;SDS011;2290;48.674;9.018;2023-07-02T16:41:43;13.30;;;7.53;;
4555;SDS011;2290;48.674;9.018;2023-07-02T16:46:45;12.00;;;7.20;;
4555;SDS011;2290;48.674;9.018;2023-07-02T16:49:12;12.60;;;7.43;;
4555;SDS011;2290;48.674;9.018;2023-07-02T16:51:40;14.13;;;7.87;;
4555;SDS011;2290;48.674;9.018;2023-07-02T16:54:08;14.60;;;7.50;;
4555;SDS011;2290;48.674;9.018;2023-07-02T16:56:39;14.13;;;7.60;;
4555;SDS011;2290;48.674;9.018;2023-07-02T16:59:11;12.30;;;7.57;;
4555;SDS011;2290;48.674;9.018;2023-07-02T17:01:41;13.70;;;7.23;;
4555;SDS011;2290;48.674;9.018;2023-07-02T17:04:09;13.60;;;7.60;;
4555;SDS011;2290;48.674;9.018;2023-07-02T17:06:36;11.40;;;7.20;;
4555;SDS011;2290;48.674;9.018;2023-07-02T17:11:41;14.87;;;7.80;;
4555;SDS011;2290;48.674;9.018;2023-07-02T17:14:08;15.47;;;8.27;;
4555;SDS011;2290;48.674;9.018;2023-07-02T17:16:34;13.57;;;8.30;;
4555;SDS011;2290;48.674;9.018;2023-07-02T17:19:00;13.90;;;7.30;;
4555;SDS011;2290;48.674;9.018;2023-07-02T17:21:25;15.63;;;7.70;;
4555;SDS011;2290;48.674;9.018;2023-07-02T17:23:51;11.67;;;7.30;;
4555;SDS011;2290;48.674;9.018;2023-07-02T17:26:16;14.00;;;8.30;;
4555;SDS011;2290;48.674;9.018;2023-07-02T17:28:43;13.13;;;7.33;;
4555;SDS011;2290;48.674;9.018;2023-07-02T17:31:09;13.57;;;7.47;;
4555;SDS011;2290;48.674;9.018;2023-07-02T17:33:35;14.83;;;8.10;;
4555;SDS011;2290;48.674;9.018;2023-07-02T17:36:00;17.10;;;7.83;;
4555;SDS011;2290;48.674;9.018;2023-07-02T17:38:26;17.20;;;8.23;;
4555;SDS011;2290;48.674;9.018;2023-07-02T17:40:52;17.53;;;8.47;;
4555;SDS011;2290;48.674;9.018;2023-07-02T17:43:18;15.20;;;8.90;;
4555;SDS011;2290;48.674;9.018;2023-07-02T17:45:54;14.10;;;7.93;;
4555;SDS011;2290;48.674;9.018;2023-07-02T17:48:22;13.90;;;8.27;;
4555;SDS011;2290;48.674;9.018;2023-07-02T17:50:54;13.67;;;7.40;;
4555;SDS011;2290;48.674;9.018;2023-07-02T17:53:22;14.70;;;7.60;;
4555;SDS011;2290;48.674;9.018;2023-07-02T17:55:49;12.33;;;7.30;;
4555;SDS011;2290;48.674;9.018;2023-07-02T17:58:14;16.27;;;7.97;;
4555;SDS011;2290;48.674;9.018;2023-07-02T18:00:40;16.27;;;7.63;;
4555;SDS011;2290;48.674;9.018;2023-07-02T18:03:05;14.20;;;8.03;;
4555;SDS011;2290;48.674;9.018;2023-07-02T18:05:31;14.10;;;8.07;;
4555;SDS011;2290;48.674;9.018;2023-07-02T18:07:56;15.77;;;7.30;;